Time;durP1;ratioP1;P1;durP2;ratioP2;P2;SDS_P1;SDS_P2;PMS_P1;PMS_P2;Temp;Humidity;BMP_temperature;BMP_pressure;BME280_temperature;BME280_humidity;BME280_pressure;Samples;Min_cycle;Max_cycle;Signal;HPM_P1;HPM_P2
2023/06/28 00:01:09;;;;;;;1.05;0.90;;;;;;;;;;5060193;28;20028;-77
2023/06/28 00:03:35;;;;;;;1.77;0.90;;;;;;;;;;5076824;28;20059;-77
2023/06/28 00:06:00;;;;;;;2.22;1.05;;;;;;;;;;5095000;28;20028;-77
2023/06/28 00:08:26;;;;;;;1.17;1.00;;;;;;;;;;5076758;28;20451;-76
2023/06/28 00:10:51;;;;;;;2.13;0.88;;;;;;;;;;5094813;28;20028;-77
2023/06/28 00:13:17;;;;;;;1.90;1.00;;;;;;;;;;5076632;28;20036;-77
2023/06/28 00:15:44;;;;;;;2.08;1.08;;;;;;;;;;5059998;28;20451;-77
2023/06/28 00:18:10;;;;;;;1.33;0.90;;;;;;;;;;5076721;28;20036;-77
2023/06/28 00:20:35;;;;;;;0.90;0.75;;;;;;;;;;5094579;28;20047;-76
2023/06/28 00:23:00;;;;;;;1.70;0.90;;;;;;;;;;5094566;28;20039;-77
2023/06/28 00:25:26;;;;;;;1.20;0.85;;;;;;;;;;5076439;28;20483;-76
2023/06/28 00:27:51;;;;;;;1.63;0.90;;;;;;;;;;5094544;28;20177;-77
2023/06/28 00:30:17;;;;;;;1.42;1.08;;;;;;;;;;5094403;28;20032;-77
2023/06/28 00:32:42;;;;;;;1.48;0.95;;;;;;;;;;5059856;28;20522;-77
2023/06/28 00:35:07;;;;;;;1.70;1.13;;;;;;;;;;5094681;28;20386;-77
2023/06/28 00:37:33;;;;;;;1.38;1.17;;;;;;;;;;5076250;28;20056;-77
2023/06/28 00:39:59;;;;;;;1.52;1.00;;;;;;;;;;5059115;28;20089;-76
2023/06/28 00:42:24;;;;;;;1.70;1.00;;;;;;;;;;5076194;28;20501;-76
2023/06/28 00:44:50;;;;;;;1.40;0.82;;;;;;;;;;5059439;28;20031;-76
2023/06/28 00:47:16;;;;;;;1.13;0.80;;;;;;;;;;5076008;28;20051;-77
2023/06/28 00:49:41;;;;;;;0.93;0.90;;;;;;;;;;5076289;28;20489;-76
2023/06/28 00:52:07;;;;;;;1.55;1.02;;;;;;;;;;5075890;28;20032;-77
2023/06/28 00:54:33;;;;;;;1.50;0.93;;;;;;;;;;5075879;28;20102;-77
2023/06/28 00:56:59;;;;;;;0.90;0.88;;;;;;;;;;5059226;28;20554;-77
2023/06/28 00:59:25;;;;;;;1.45;1.00;;;;;;;;;;5059121;28;20040;-76
2023/06/28 01:01:51;;;;;;;2.33;1.05;;;;;;;;;;5075484;28;20124;-77
2023/06/28 01:04:16;;;;;;;3.75;1.10;;;;;;;;;;5076302;28;20055;-77
2023/06/28 01:06:51;;;;;;;1.35;0.98;;;;;;;;;;5093753;28;20024;-76
2023/06/28 01:09:20;;;;;;;1.00;0.85;;;;;;;;;;5077541;28;20381;-77
2023/06/28 01:11:50;;;;;;;2.20;1.10;;;;;;;;;;5075989;28;20032;-76
2023/06/28 01:14:17;;;;;;;1.38;1.00;;;;;;;;;;5075886;28;20387;-76
2023/06/28 01:16:42;;;;;;;0.80;0.80;;;;;;;;;;5075304;28;20485;-77
2023/06/28 01:19:09;;;;;;;1.05;1.00;;;;;;;;;;5093858;28;20115;-76
2023/06/28 01:21:41;;;;;;;1.48;1.00;;;;;;;;;;5093840;28;20063;-76
2023/06/28 01:24:10;;;;;;;1.10;0.98;;;;;;;;;;5075587;28;20106;-76
2023/06/28 01:26:36;;;;;;;1.42;1.10;;;;;;;;;;5076341;28;20041;-76
2023/06/28 01:29:03;;;;;;;1.67;1.00;;;;;;;;;;5075465;28;20032;-76
2023/06/28 01:31:29;;;;;;;1.13;0.88;;;;;;;;;;5075919;28;20090;-76
2023/06/28 01:33:54;;;;;;;1.33;0.90;;;;;;;;;;5093724;28;20032;-76
2023/06/28 01:36:19;;;;;;;1.02;0.93;;;;;;;;;;5093675;28;20355;-76
2023/06/28 01:38:45;;;;;;;1.25;0.90;;;;;;;;;;5093354;28;20032;-76
2023/06/28 01:41:10;;;;;;;2.42;1.00;;;;;;;;;;5093693;28;20032;-76
2023/06/28 01:43:36;;;;;;;1.90;1.02;;;;;;;;;;5093359;28;20032;-76
2023/06/28 01:46:01;;;;;;;0.93;0.85;;;;;;;;;;5093576;28;20471;-76
2023/06/28 01:48:27;;;;;;;1.92;1.13;;;;;;;;;;5075477;28;20069;-76
2023/06/28 01:50:52;;;;;;;1.20;0.90;;;;;;;;;;5077653;28;20067;-76
2023/06/28 01:53:18;;;;;;;1.73;0.93;;;;;;;;;;5079413;28;20543;-76
2023/06/28 01:55:44;;;;;;;4.30;1.20;;;;;;;;;;5097412;28;20563;-76
2023/06/28 01:58:09;;;;;;;1.30;0.98;;;;;;;;;;5079208;28;20032;-76
2023/06/28 02:00:35;;;;;;;1.73;1.10;;;;;;;;;;5079756;28;20055;-76
2023/06/28 02:03:00;;;;;;;1.17;1.00;;;;;;;;;;5078644;28;20602;-77
2023/06/28 02:05:25;;;;;;;0.70;0.70;;;;;;;;;;5079355;28;20039;-76
2023/06/28 02:07:51;;;;;;;1.33;1.00;;;;;;;;;;5097539;28;20078;-77
2023/06/28 02:10:18;;;;;;;1.17;0.98;;;;;;;;;;5079022;28;20028;-77
2023/06/28 02:12:43;;;;;;;2.00;1.00;;;;;;;;;;5079519;28;20463;-77
2023/06/28 02:15:10;;;;;;;1.10;0.93;;;;;;;;;;5078960;28;20085;-77
2023/06/28 02:17:36;;;;;;;0.88;0.77;;;;;;;;;;5062513;28;20036;-77
2023/06/28 02:20:04;;;;;;;1.45;0.93;;;;;;;;;;5079184;28;20020;-77
2023/06/28 02:22:29;;;;;;;1.63;0.98;;;;;;;;;;5097287;28;20040;-76
2023/06/28 02:24:55;;;;;;;1.52;1.00;;;;;;;;;;5097184;28;20356;-76
2023/06/28 02:27:20;;;;;;;1.02;0.90;;;;;;;;;;5078787;28;20034;-77
2023/06/28 02:29:45;;;;;;;3.30;0.93;;;;;;;;;;5078408;28;20115;-76
2023/06/28 02:32:11;;;;;;;1.15;0.90;;;;;;;;;;5079233;28;20593;-76
2023/06/28 02:34:37;;;;;;;1.10;1.00;;;;;;;;;;5061794;28;20028;-77
2023/06/28 02:37:02;;;;;;;0.88;0.88;;;;;;;;;;5078804;28;20035;-79
2023/06/28 02:39:28;;;;;;;1.90;1.10;;;;;;;;;;5097155;28;20451;-76
2023/06/28 02:41:53;;;;;;;1.58;1.10;;;;;;;;;;5078552;28;20031;-76
2023/06/28 02:44:19;;;;;;;1.80;0.98;;;;;;;;;;5061898;28;20081;-76
2023/06/28 02:46:44;;;;;;;2.28;1.17;;;;;;;;;;5078314;28;20126;-76
2023/06/28 02:49:10;;;;;;;0.80;0.80;;;;;;;;;;5045100;28;20030;-76
2023/06/28 02:51:35;;;;;;;1.05;0.85;;;;;;;;;;5079058;28;20028;-76
2023/06/28 02:54:01;;;;;;;1.08;1.00;;;;;;;;;;5061519;28;20036;-75
2023/06/28 02:56:26;;;;;;;3.67;1.08;;;;;;;;;;5078548;28;20024;-75
2023/06/28 02:58:52;;;;;;;0.80;0.80;;;;;;;;;;5096216;28;20040;-76
2023/06/28 03:01:20;;;;;;;1.13;0.80;;;;;;;;;;5096129;28;20088;-76
2023/06/28 03:03:46;;;;;;;1.10;1.00;;;;;;;;;;5096002;28;20028;-76
2023/06/28 03:06:11;;;;;;;1.33;1.10;;;;;;;;;;5061552;28;20115;-76
2023/06/28 03:08:36;;;;;;;1.92;0.82;;;;;;;;;;5078068;28;20463;-76
2023/06/28 03:11:02;;;;;;;2.13;1.00;;;;;;;;;;5078158;28;20043;-76
2023/06/28 03:13:27;;;;;;;0.85;0.85;;;;;;;;;;5096281;28;20028;-76
2023/06/28 03:15:52;;;;;;;1.08;0.80;;;;;;;;;;5078418;28;20027;-77
2023/06/28 03:18:18;;;;;;;1.38;1.05;;;;;;;;;;5096141;28;20040;-76
2023/06/28 03:20:43;;;;;;;1.02;0.90;;;;;;;;;;5061381;28;20032;-76
2023/06/28 03:23:09;;;;;;;2.35;1.00;;;;;;;;;;5060971;28;20395;-76
2023/06/28 03:25:34;;;;;;;0.77;0.63;;;;;;;;;;5078276;28;20036;-76
2023/06/28 03:28:00;;;;;;;3.05;0.98;;;;;;;;;;5096242;28;20024;-76
2023/06/28 03:30:25;;;;;;;2.05;1.30;;;;;;;;;;5095616;28;20032;-76
2023/06/28 03:32:50;;;;;;;2.05;1.10;;;;;;;;;;5095816;28;20063;-76
2023/06/28 03:35:16;;;;;;;1.08;0.88;;;;;;;;;;5077294;28;20080;-76
2023/06/28 03:38:08;;;;;;;1.58;1.00;;;;;;;;;;5095380;28;20478;-76
2023/06/28 03:40:34;;;;;;;1.60;0.82;;;;;;;;;;5056935;28;20118;-76
2023/06/28 03:42:59;;;;;;;2.28;0.80;;;;;;;;;;5095869;28;20038;-76
2023/06/28 03:45:24;;;;;;;0.80;0.80;;;;;;;;;;5095646;28;20111;-76
2023/06/28 03:47:50;;;;;;;0.98;0.77;;;;;;;;;;5095566;28;20032;-76
2023/06/28 03:50:15;;;;;;;2.53;1.00;;;;;;;;;;5095749;28;20027;-77
2023/06/28 03:52:41;;;;;;;2.25;1.00;;;;;;;;;;5077322;28;20394;-76
2023/06/28 03:55:06;;;;;;;8.20;1.10;;;;;;;;;;5095088;28;20020;-76
2023/06/28 03:57:32;;;;;;;1.23;1.00;;;;;;;;;;5095246;28;20475;-76
2023/06/28 03:59:58;;;;;;;1.33;1.00;;;;;;;;;;5095160;28;20460;-76
2023/06/28 04:02:23;;;;;;;2.60;1.00;;;;;;;;;;5076378;28;20040;-76
2023/06/28 04:04:49;;;;;;;1.80;0.95;;;;;;;;;;5060424;28;20493;-76
2023/06/28 04:07:14;;;;;;;1.65;1.10;;;;;;;;;;5076878;28;20065;-76
2023/06/28 04:09:40;;;;;;;0.82;0.75;;;;;;;;;;5076730;28;20032;-76
2023/06/28 04:12:06;;;;;;;1.92;0.90;;;;;;;;;;5095192;28;20027;-76
2023/06/28 04:14:31;;;;;;;2.60;0.90;;;;;;;;;;5093655;28;20036;-76
2023/06/28 04:16:57;;;;;;;2.28;1.20;;;;;;;;;;5076841;28;20036;-76
2023/06/28 04:19:22;;;;;;;1.35;0.90;;;;;;;;;;5094988;28;20028;-76
2023/06/28 04:21:48;;;;;;;1.50;0.80;;;;;;;;;;5076874;28;20081;-75
2023/06/28 04:24:13;;;;;;;2.45;0.98;;;;;;;;;;5076437;28;20024;-76
2023/06/28 04:26:38;;;;;;;1.63;1.00;;;;;;;;;;5094846;28;20024;-75
2023/06/28 04:29:04;;;;;;;1.30;0.90;;;;;;;;;;5076401;28;20061;-75
2023/06/28 04:31:29;;;;;;;2.78;1.20;;;;;;;;;;5076648;28;20467;-75
2023/06/28 04:33:55;;;;;;;1.48;1.02;;;;;;;;;;5094918;28;20120;-74
2023/06/28 04:36:21;;;;;;;2.90;1.40;;;;;;;;;;5076739;28;20024;-73
2023/06/28 04:38:52;;;;;;;2.33;1.10;;;;;;;;;;5094543;28;20035;-76
2023/06/28 04:41:19;;;;;;;2.47;1.25;;;;;;;;;;5094408;28;20042;-74
2023/06/28 04:43:45;;;;;;;2.50;1.40;;;;;;;;;;5076100;28;20483;-76
2023/06/28 04:46:11;;;;;;;4.57;1.70;;;;;;;;;;5094678;28;20031;-76
2023/06/28 04:48:37;;;;;;;6.90;1.80;;;;;;;;;;5076335;28;20020;-75
2023/06/28 04:51:03;;;;;;;4.07;2.15;;;;;;;;;;5076213;28;20035;-75
2023/06/28 04:53:28;;;;;;;4.07;2.38;;;;;;;;;;5094015;28;20024;-75
2023/06/28 04:55:53;;;;;;;7.03;3.08;;;;;;;;;;5076234;28;20039;-75
2023/06/28 04:58:19;;;;;;;7.82;2.97;;;;;;;;;;5094387;28;20060;-76
2023/06/28 05:00:45;;;;;;;5.95;2.50;;;;;;;;;;5059723;28;20036;-78
2023/06/28 05:03:11;;;;;;;5.38;2.22;;;;;;;;;;5075875;28;20056;-76
2023/06/28 05:05:36;;;;;;;6.63;2.75;;;;;;;;;;5075743;28;20039;-74
2023/06/28 05:08:03;;;;;;;7.60;3.00;;;;;;;;;;5094261;28;20118;-77
2023/06/28 05:10:28;;;;;;;6.03;3.03;;;;;;;;;;5094323;28;20034;-75
2023/06/28 05:12:54;;;;;;;6.43;2.70;;;;;;;;;;5076372;28;20466;-75
2023/06/28 05:15:19;;;;;;;20.77;6.00;;;;;;;;;;5093836;28;20028;-75
2023/06/28 05:17:45;;;;;;;22.45;7.97;;;;;;;;;;5093825;28;20134;-76
2023/06/28 05:20:11;;;;;;;26.17;8.05;;;;;;;;;;5076001;28;20039;-76
2023/06/28 05:22:49;;;;;;;23.67;7.80;;;;;;;;;;5075515;28;20032;-75
2023/06/28 05:25:15;;;;;;;23.98;7.32;;;;;;;;;;5075701;28;20023;-76
2023/06/28 05:27:40;;;;;;;20.30;7.03;;;;;;;;;;5058816;28;20484;-75
2023/06/28 05:30:07;;;;;;;24.15;7.20;;;;;;;;;;5093644;28;20063;-75
2023/06/28 05:32:33;;;;;;;21.02;6.32;;;;;;;;;;5093851;28;20032;-75
2023/06/28 05:34:58;;;;;;;19.40;6.55;;;;;;;;;;5094072;28;20039;-75
2023/06/28 05:37:24;;;;;;;15.20;4.65;;;;;;;;;;5042053;28;20031;-74
2023/06/28 05:39:49;;;;;;;15.07;5.03;;;;;;;;;;5058672;28;20118;-74
2023/06/28 05:42:14;;;;;;;11.90;4.60;;;;;;;;;;5093474;28;20038;-74
2023/06/28 05:44:40;;;;;;;16.65;4.93;;;;;;;;;;5093719;28;20035;-75
2023/06/28 05:47:05;;;;;;;16.55;4.45;;;;;;;;;;5093624;28;20035;-74
2023/06/28 05:49:31;;;;;;;14.50;4.20;;;;;;;;;;5093726;28;20382;-75
2023/06/28 05:51:57;;;;;;;8.50;3.42;;;;;;;;;;5093873;28;20027;-75
2023/06/28 05:54:22;;;;;;;11.38;4.32;;;;;;;;;;5075362;28;20364;-74
2023/06/28 05:56:48;;;;;;;11.02;3.45;;;;;;;;;;5093659;28;20040;-73
2023/06/28 05:59:13;;;;;;;9.10;3.33;;;;;;;;;;5093239;28;20066;-73
2023/06/28 06:01:38;;;;;;;9.10;3.33;;;;;;;;;;5093251;28;20052;-73
2023/06/28 06:04:04;;;;;;;10.77;3.13;;;;;;;;;;5075576;28;20394;-74
2023/06/28 06:06:29;;;;;;;7.80;3.45;;;;;;;;;;5093271;28;20158;-74
2023/06/28 06:08:55;;;;;;;6.90;2.65;;;;;;;;;;5093637;28;20466;-74
2023/06/28 06:11:20;;;;;;;6.18;2.70;;;;;;;;;;5075692;28;20060;-75
2023/06/28 06:13:47;;;;;;;5.65;2.50;;;;;;;;;;5093891;28;20028;-74
2023/06/28 06:16:12;;;;;;;6.03;2.35;;;;;;;;;;5093391;28;20039;-75
2023/06/28 06:18:40;;;;;;;6.35;2.33;;;;;;;;;;5058643;28;20402;-74
2023/06/28 06:21:05;;;;;;;5.90;2.35;;;;;;;;;;5093081;28;20032;-75
2023/06/28 06:23:31;;;;;;;5.28;2.03;;;;;;;;;;5093168;28;20445;-74
2023/06/28 06:25:56;;;;;;;5.20;1.92;;;;;;;;;;5093340;28;20035;-74
2023/06/28 06:28:21;;;;;;;6.70;2.03;;;;;;;;;;5092998;28;20024;-74
2023/06/28 06:30:47;;;;;;;5.68;1.98;;;;;;;;;;5093260;28;20028;-73
2023/06/28 06:33:12;;;;;;;4.07;1.77;;;;;;;;;;5092980;28;20044;-74
2023/06/28 06:35:37;;;;;;;3.97;1.85;;;;;;;;;;5074953;28;20038;-76
2023/06/28 06:38:03;;;;;;;4.50;1.80;;;;;;;;;;5095314;28;20028;-73
2023/06/28 06:40:28;;;;;;;3.58;1.67;;;;;;;;;;5097011;28;20481;-74
2023/06/28 06:42:54;;;;;;;3.50;1.77;;;;;;;;;;5078695;28;20024;-74
2023/06/28 06:45:20;;;;;;;5.53;1.77;;;;;;;;;;5078991;28;20028;-74
2023/06/28 06:47:45;;;;;;;3.17;1.60;;;;;;;;;;5097341;28;20038;-74
2023/06/28 06:50:11;;;;;;;3.05;1.42;;;;;;;;;;5096579;28;20105;-74
2023/06/28 06:52:40;;;;;;;4.53;1.52;;;;;;;;;;5078553;28;20368;-74
2023/06/28 06:55:05;;;;;;;5.10;1.60;;;;;;;;;;5078454;28;20032;-74
2023/06/28 06:57:31;;;;;;;3.33;1.55;;;;;;;;;;5078530;28;20036;-74
2023/06/28 06:59:56;;;;;;;3.35;2.05;;;;;;;;;;5096324;28;20071;-74
2023/06/28 07:02:22;;;;;;;2.60;1.40;;;;;;;;;;5077962;28;20516;-74
2023/06/28 07:04:48;;;;;;;2.60;1.40;;;;;;;;;;5061575;28;20036;-74
2023/06/28 07:07:13;;;;;;;3.10;1.60;;;;;;;;;;5096546;28;20390;-74
2023/06/28 07:09:39;;;;;;;2.30;1.40;;;;;;;;;;5078427;28;20028;-74
2023/06/28 07:12:04;;;;;;;3.22;1.40;;;;;;;;;;5078361;28;20053;-74
2023/06/28 07:14:30;;;;;;;2.78;1.60;;;;;;;;;;5096041;28;20493;-74
2023/06/28 07:16:55;;;;;;;2.20;1.40;;;;;;;;;;5077731;28;20035;-74
2023/06/28 07:19:21;;;;;;;3.00;1.70;;;;;;;;;;5078235;28;20036;-74
2023/06/28 07:21:46;;;;;;;2.80;1.60;;;;;;;;;;5096185;28;20103;-74
2023/06/28 07:24:11;;;;;;;1.20;1.10;;;;;;;;;;5095859;28;20387;-74
2023/06/28 07:26:37;;;;;;;3.97;1.83;;;;;;;;;;5096053;28;20032;-73
2023/06/28 07:29:02;;;;;;;2.70;1.40;;;;;;;;;;5060983;28;20020;-74
2023/06/28 07:31:28;;;;;;;1.63;1.20;;;;;;;;;;5077651;28;20113;-74
2023/06/28 07:33:53;;;;;;;2.25;1.42;;;;;;;;;;5060881;28;20118;-74
2023/06/28 07:36:18;;;;;;;3.78;1.55;;;;;;;;;;5077522;28;20038;-74
2023/06/28 07:38:44;;;;;;;3.22;1.60;;;;;;;;;;5095799;28;20414;-74
2023/06/28 07:41:09;;;;;;;1.95;1.30;;;;;;;;;;5095596;28;20047;-74
2023/06/28 07:43:35;;;;;;;1.58;1.40;;;;;;;;;;5077611;28;20110;-74
2023/06/28 07:46:01;;;;;;;2.97;1.58;;;;;;;;;;5095566;28;20028;-74
2023/06/28 07:48:26;;;;;;;1.90;1.35;;;;;;;;;;5096045;28;20024;-74
2023/06/28 07:50:52;;;;;;;7.85;1.60;;;;;;;;;;5095876;28;20118;-74
2023/06/28 07:53:17;;;;;;;2.83;1.27;;;;;;;;;;5077576;28;20024;-74
2023/06/28 07:55:43;;;;;;;2.33;1.50;;;;;;;;;;5077127;28;20031;-76
2023/06/28 07:58:08;;;;;;;1.90;1.40;;;;;;;;;;5060497;28;20032;-75
2023/06/28 08:00:33;;;;;;;2.08;1.35;;;;;;;;;;5095492;28;20028;-74
2023/06/28 08:02:59;;;;;;;5.40;1.88;;;;;;;;;;5095030;28;20055;-74
2023/06/28 08:05:25;;;;;;;4.53;1.50;;;;;;;;;;5077031;28;20479;-73
2023/06/28 08:07:53;;;;;;;2.15;1.30;;;;;;;;;;5077204;28;20069;-74
2023/06/28 08:10:18;;;;;;;2.50;1.50;;;;;;;;;;5077116;28;20020;-75
2023/06/28 08:12:44;;;;;;;2.70;1.50;;;;;;;;;;5094976;28;20054;-75
2023/06/28 08:15:09;;;;;;;4.15;1.40;;;;;;;;;;5096044;28;20032;-74
2023/06/28 08:17:35;;;;;;;3.67;1.52;;;;;;;;;;5095204;28;20044;-74
2023/06/28 08:20:00;;;;;;;2.40;1.20;;;;;;;;;;5060288;28;20032;-74
2023/06/28 08:22:25;;;;;;;4.15;1.60;;;;;;;;;;5076663;28;20471;-74
2023/06/28 08:24:51;;;;;;;4.72;1.50;;;;;;;;;;5094747;28;20035;-73
2023/06/28 08:27:17;;;;;;;2.88;1.42;;;;;;;;;;5095008;28;20027;-74
2023/06/28 08:29:42;;;;;;;4.45;1.60;;;;;;;;;;5076862;28;20032;-75
2023/06/28 08:32:09;;;;;;;3.38;1.75;;;;;;;;;;5094854;28;20036;-74
2023/06/28 08:34:34;;;;;;;3.67;2.00;;;;;;;;;;5076719;28;20024;-74
2023/06/28 08:37:00;;;;;;;4.63;2.05;;;;;;;;;;5094753;28;20028;-74
2023/06/28 08:39:25;;;;;;;3.38;1.80;;;;;;;;;;5059887;28;20423;-75
2023/06/28 08:41:53;;;;;;;3.83;2.00;;;;;;;;;;5059904;28;20035;-75
2023/06/28 08:44:20;;;;;;;4.82;1.77;;;;;;;;;;5076685;28;20174;-75
2023/06/28 08:46:47;;;;;;;3.08;1.60;;;;;;;;;;5076456;28;20467;-74
2023/06/28 08:49:12;;;;;;;4.03;1.67;;;;;;;;;;5059877;28;20035;-74
2023/06/28 08:51:38;;;;;;;3.17;1.65;;;;;;;;;;5076449;28;20032;-75
2023/06/28 08:54:03;;;;;;;3.40;1.85;;;;;;;;;;5094370;28;20367;-75
2023/06/28 08:56:29;;;;;;;3.72;2.20;;;;;;;;;;5076106;28;20085;-75
2023/06/28 08:58:56;;;;;;;3.30;1.63;;;;;;;;;;5094335;28;20024;-75
2023/06/28 09:01:24;;;;;;;3.30;1.70;;;;;;;;;;5075404;28;20065;-75
2023/06/28 09:03:50;;;;;;;4.10;1.73;;;;;;;;;;5076206;28;20059;-74
2023/06/28 09:06:16;;;;;;;4.20;1.77;;;;;;;;;;5075879;28;20044;-74
2023/06/28 09:08:43;;;;;;;2.90;1.55;;;;;;;;;;5059138;28;20028;-75
2023/06/28 09:11:08;;;;;;;4.10;1.67;;;;;;;;;;5076082;28;20092;-74
2023/06/28 09:13:34;;;;;;;2.35;1.60;;;;;;;;;;5076086;28;20028;-74
2023/06/28 09:16:00;;;;;;;2.92;1.80;;;;;;;;;;5093802;28;20391;-74
2023/06/28 09:18:25;;;;;;;3.00;1.90;;;;;;;;;;5058966;28;20066;-75
2023/06/28 09:20:52;;;;;;;2.33;1.33;;;;;;;;;;5093820;28;20055;-75
2023/06/28 09:23:26;;;;;;;3.08;1.58;;;;;;;;;;5058974;28;20035;-74
2023/06/28 09:25:52;;;;;;;2.38;1.50;;;;;;;;;;5094065;28;20035;-75
2023/06/28 09:28:17;;;;;;;2.25;1.75;;;;;;;;;;5075518;28;20395;-76
2023/06/28 09:30:43;;;;;;;3.58;1.65;;;;;;;;;;5075617;28;20101;-74
2023/06/28 09:33:08;;;;;;;2.17;1.60;;;;;;;;;;5093644;28;20031;-74
2023/06/28 09:35:38;;;;;;;3.30;1.70;;;;;;;;;;5075465;28;20038;-75
2023/06/28 09:38:07;;;;;;;2.42;1.48;;;;;;;;;;5093407;28;20032;-75
2023/06/28 09:40:36;;;;;;;3.55;1.60;;;;;;;;;;5093729;28;20111;-75
2023/06/28 09:43:02;;;;;;;3.35;1.75;;;;;;;;;;5059489;28;20040;-75
2023/06/28 09:45:30;;;;;;;2.17;1.50;;;;;;;;;;5094037;28;20382;-74
2023/06/28 09:48:01;;;;;;;1.73;1.35;;;;;;;;;;5075316;28;20038;-75
2023/06/28 09:50:37;;;;;;;2.72;1.58;;;;;;;;;;5075688;28;20050;-73
2023/06/28 09:53:15;;;;;;;3.05;1.60;;;;;;;;;;5075325;28;20031;-76
2023/06/28 09:55:42;;;;;;;4.95;1.85;;;;;;;;;;5075449;28;20143;-75
2023/06/28 09:58:10;;;;;;;2.95;1.65;;;;;;;;;;5075770;28;20099;-76
2023/06/28 10:00:37;;;;;;;2.80;1.67;;;;;;;;;;5075406;28;20467;-74
2023/06/28 10:03:05;;;;;;;2.38;1.55;;;;;;;;;;5075418;28;20064;-76
2023/06/28 10:05:32;;;;;;;2.78;1.38;;;;;;;;;;5058441;28;20028;-75
2023/06/28 10:07:59;;;;;;;3.47;1.92;;;;;;;;;;5075223;28;20368;-75
2023/06/28 10:10:25;;;;;;;2.15;1.60;;;;;;;;;;5076024;28;20035;-76
2023/06/28 10:12:51;;;;;;;3.35;1.50;;;;;;;;;;5077332;28;20395;-76
2023/06/28 10:15:21;;;;;;;3.35;1.85;;;;;;;;;;5079584;28;20032;-76
2023/06/28 10:17:47;;;;;;;3.92;1.75;;;;;;;;;;5097174;28;20028;-77
2023/06/28 10:20:12;;;;;;;4.38;2.00;;;;;;;;;;5078759;28;20031;-77
2023/06/28 10:22:37;;;;;;;5.35;1.75;;;;;;;;;;5079204;28;20498;-76
2023/06/28 10:25:04;;;;;;;7.53;1.83;;;;;;;;;;5079236;28;20035;-75
2023/06/28 10:27:33;;;;;;;5.00;2.05;;;;;;;;;;5078874;28;20035;-74
2023/06/28 10:30:00;;;;;;;6.10;2.40;;;;;;;;;;5079404;28;20047;-75
2023/06/28 10:32:25;;;;;;;6.00;2.50;;;;;;;;;;5079205;28;20031;-75
2023/06/28 10:34:51;;;;;;;12.93;2.67;;;;;;;;;;5079327;28;20370;-74
2023/06/28 10:37:21;;;;;;;5.15;2.30;;;;;;;;;;5078723;28;20461;-76
2023/06/28 10:39:46;;;;;;;5.28;1.98;;;;;;;;;;5061950;28;20028;-74
2023/06/28 10:42:11;;;;;;;8.18;2.45;;;;;;;;;;5096925;28;20489;-74
2023/06/28 10:44:56;;;;;;;10.95;2.20;;;;;;;;;;5097128;28;20035;-75
2023/06/28 10:47:22;;;;;;;11.45;3.40;;;;;;;;;;5078588;28;20115;-74
2023/06/28 10:50:10;;;;;;;16.83;3.72;;;;;;;;;;5079083;28;20048;-74
2023/06/28 10:52:47;;;;;;;9.60;3.55;;;;;;;;;;5096784;28;20390;-74
2023/06/28 10:55:17;;;;;;;11.90;3.90;;;;;;;;;;5078590;28;20381;-75
2023/06/28 10:57:42;;;;;;;10.85;3.85;;;;;;;;;;5078538;28;20020;-75
2023/06/28 11:00:29;;;;;;;9.60;2.70;;;;;;;;;;5096738;28;20535;-75
2023/06/28 11:03:03;;;;;;;11.65;3.30;;;;;;;;;;5096124;28;20580;-75
2023/06/28 11:05:44;;;;;;;11.90;3.17;;;;;;;;;;5078681;28;20042;-75
2023/06/28 11:08:14;;;;;;;8.57;3.17;;;;;;;;;;5096455;28;20483;-75
2023/06/28 11:10:44;;;;;;;6.85;2.78;;;;;;;;;;5078354;28;20031;-75
2023/06/28 11:13:11;;;;;;;14.45;2.90;;;;;;;;;;5096523;28;20107;-75
2023/06/28 11:15:42;;;;;;;8.20;2.55;;;;;;;;;;5078308;28;20024;-76
2023/06/28 11:18:19;;;;;;;6.00;2.90;;;;;;;;;;5096189;28;20035;-76
2023/06/28 11:20:59;;;;;;;8.98;2.53;;;;;;;;;;5096428;28;20028;-76
2023/06/28 11:23:29;;;;;;;8.90;2.72;;;;;;;;;;5061199;28;20028;-75
2023/06/28 11:25:56;;;;;;;10.50;2.80;;;;;;;;;;5096896;28;20039;-75
2023/06/28 11:28:29;;;;;;;9.27;2.78;;;;;;;;;;5061219;28;20016;-75
2023/06/28 11:30:54;;;;;;;10.65;2.70;;;;;;;;;;5096242;28;20024;-75
2023/06/28 11:33:22;;;;;;;9.60;3.22;;;;;;;;;;5077842;28;20028;-75
2023/06/28 11:35:47;;;;;;;6.22;2.58;;;;;;;;;;5078460;28;20020;-76
2023/06/28 11:38:13;;;;;;;7.82;2.75;;;;;;;;;;5078123;28;20036;-75
2023/06/28 11:40:39;;;;;;;5.18;2.33;;;;;;;;;;5061234;28;20428;-76
2023/06/28 11:43:04;;;;;;;5.15;2.47;;;;;;;;;;5095645;28;20020;-77
2023/06/28 11:45:32;;;;;;;8.77;2.35;;;;;;;;;;5095940;28;20028;-77
2023/06/28 11:47:58;;;;;;;4.82;2.35;;;;;;;;;;5095736;28;20035;-76
2023/06/28 11:50:23;;;;;;;6.38;2.53;;;;;;;;;;5077968;28;20032;-75
2023/06/28 11:52:50;;;;;;;7.22;2.90;;;;;;;;;;5077383;28;20028;-76
2023/06/28 11:55:15;;;;;;;6.25;2.45;;;;;;;;;;5095418;28;20056;-76
2023/06/28 11:57:45;;;;;;;10.13;2.75;;;;;;;;;;5095623;28;20109;-76
2023/06/28 12:00:15;;;;;;;4.68;2.20;;;;;;;;;;5061448;28;20052;-75
2023/06/28 12:02:48;;;;;;;15.80;2.70;;;;;;;;;;5077039;28;20059;-74
2023/06/28 12:05:17;;;;;;;11.75;2.63;;;;;;;;;;5044048;28;20519;-75
2023/06/28 12:07:44;;;;;;;7.43;2.25;;;;;;;;;;5060543;28;20056;-75
2023/06/28 12:10:11;;;;;;;13.65;2.50;;;;;;;;;;5077399;28;20024;-75
2023/06/28 12:12:38;;;;;;;11.73;2.72;;;;;;;;;;5077703;28;20024;-74
2023/06/28 12:15:04;;;;;;;11.70;3.28;;;;;;;;;;5077015;28;20058;-74
2023/06/28 12:17:37;;;;;;;12.38;2.97;;;;;;;;;;5095232;28;20489;-74
2023/06/28 12:20:03;;;;;;;12.68;2.83;;;;;;;;;;5060472;28;20051;-75
2023/06/28 12:22:46;;;;;;;7.57;2.45;;;;;;;;;;5076748;28;20059;-74
2023/06/28 12:25:12;;;;;;;7.18;2.58;;;;;;;;;;5095163;28;20024;-74
2023/06/28 12:27:41;;;;;;;14.07;2.60;;;;;;;;;;5094753;28;20020;-75
2023/06/28 12:30:14;;;;;;;7.85;2.70;;;;;;;;;;5076787;28;20035;-74
2023/06/28 12:32:46;;;;;;;4.78;1.98;;;;;;;;;;5076845;28;20039;-75
2023/06/28 12:35:25;;;;;;;8.80;2.13;;;;;;;;;;5076343;28;20027;-76
2023/06/28 12:37:55;;;;;;;8.18;2.40;;;;;;;;;;5076508;28;20028;-75
2023/06/28 12:40:24;;;;;;;10.60;2.70;;;;;;;;;;5076914;28;20051;-75
2023/06/28 12:43:14;;;;;;;6.88;2.70;;;;;;;;;;5094903;28;20032;-75
2023/06/28 12:45:51;;;;;;;12.32;2.85;;;;;;;;;;5076631;28;20486;-76
2023/06/28 12:48:21;;;;;;;4.60;3.05;;;;;;;;;;5076367;28;20024;-75
2023/06/28 12:50:48;;;;;;;6.95;3.30;;;;;;;;;;5094716;28;20032;-75
2023/06/28 12:53:14;;;;;;;9.18;3.75;;;;;;;;;;5076383;28;20020;-75
2023/06/28 12:55:40;;;;;;;5.95;3.42;;;;;;;;;;5076559;28;20024;-75
2023/06/28 12:58:08;;;;;;;10.80;4.25;;;;;;;;;;5076346;28;20391;-74
2023/06/28 13:00:35;;;;;;;11.18;4.07;;;;;;;;;;5059253;28;20024;-75
2023/06/28 13:03:01;;;;;;;10.40;4.80;;;;;;;;;;5094019;28;20044;-75
2023/06/28 13:05:26;;;;;;;9.57;4.72;;;;;;;;;;5094080;28;20445;-76
2023/06/28 13:07:51;;;;;;;7.80;4.57;;;;;;;;;;5094237;28;20028;-75
2023/06/28 13:10:17;;;;;;;10.50;5.18;;;;;;;;;;5094394;28;20077;-76
2023/06/28 13:12:43;;;;;;;7.32;4.65;;;;;;;;;;5077301;28;20103;-76
2023/06/28 13:15:08;;;;;;;8.80;5.25;;;;;;;;;;5042683;28;20028;-75
2023/06/28 13:17:34;;;;;;;6.95;4.72;;;;;;;;;;5059074;28;20359;-76
2023/06/28 13:19:59;;;;;;;10.60;5.82;;;;;;;;;;5094078;28;20119;-76
2023/06/28 13:22:25;;;;;;;8.20;5.13;;;;;;;;;;5075936;28;20041;-75
2023/06/28 13:24:50;;;;;;;7.32;5.32;;;;;;;;;;5094023;28;20094;-75
2023/06/28 13:27:15;;;;;;;11.02;5.97;;;;;;;;;;5075956;28;20038;-76
2023/06/28 13:29:41;;;;;;;11.35;6.38;;;;;;;;;;5093633;28;20031;-75
2023/06/28 13:32:06;;;;;;;12.13;6.13;;;;;;;;;;5093732;28;20407;-76
2023/06/28 13:34:32;;;;;;;9.02;5.88;;;;;;;;;;5093485;28;20028;-75
2023/06/28 13:36:57;;;;;;;9.65;6.15;;;;;;;;;;5093797;28;20031;-75
2023/06/28 13:39:23;;;;;;;8.30;5.40;;;;;;;;;;5093784;28;20032;-76
2023/06/28 13:41:48;;;;;;;8.45;5.22;;;;;;;;;;5075379;28;20040;-76
2023/06/28 13:44:14;;;;;;;9.52;5.90;;;;;;;;;;5093390;28;20024;-75
2023/06/28 13:46:39;;;;;;;9.27;5.30;;;;;;;;;;5093357;28;20070;-76
2023/06/28 13:49:04;;;;;;;13.88;5.57;;;;;;;;;;5075742;28;20039;-75
2023/06/28 13:51:31;;;;;;;6.53;4.63;;;;;;;;;;5075461;28;20032;-75
2023/06/28 13:53:56;;;;;;;6.70;4.38;;;;;;;;;;5075550;28;20031;-75
2023/06/28 13:56:22;;;;;;;5.95;4.00;;;;;;;;;;5075349;28;20387;-75
2023/06/28 13:58:47;;;;;;;7.32;4.60;;;;;;;;;;5075443;28;20115;-75
2023/06/28 14:01:13;;;;;;;5.97;4.38;;;;;;;;;;5093610;28;20024;-76
2023/06/28 14:03:39;;;;;;;6.50;4.15;;;;;;;;;;5044655;28;20063;-77
2023/06/28 14:06:04;;;;;;;5.80;4.18;;;;;;;;;;5038429;28;20029;-75
2023/06/28 14:08:30;;;;;;;8.63;4.53;;;;;;;;;;5073285;28;20388;-75
2023/06/28 14:10:56;;;;;;;6.93;3.88;;;;;;;;;;5055105;28;20040;-76
2023/06/28 14:13:21;;;;;;;9.45;4.38;;;;;;;;;;5055137;28;20036;-75
2023/06/28 14:15:46;;;;;;;11.20;4.20;;;;;;;;;;5072887;28;20494;-75
2023/06/28 14:18:12;;;;;;;7.68;5.00;;;;;;;;;;5073020;28;20043;-75
2023/06/28 14:20:37;;;;;;;9.55;4.57;;;;;;;;;;5054899;28;20037;-75
2023/06/28 14:23:03;;;;;;;8.02;4.78;;;;;;;;;;5022162;28;20418;-75
2023/06/28 14:25:28;;;;;;;9.73;4.40;;;;;;;;;;5055001;28;20028;-75
2023/06/28 14:27:54;;;;;;;7.18;4.60;;;;;;;;;;5073041;28;20020;-75
2023/06/28 14:30:19;;;;;;;5.95;4.18;;;;;;;;;;5038565;28;20033;-77
2023/06/28 14:32:47;;;;;;;7.05;4.65;;;;;;;;;;5055283;28;20047;-75
2023/06/28 14:35:14;;;;;;;7.45;4.55;;;;;;;;;;5038606;28;20056;-75
2023/06/28 14:37:39;;;;;;;5.80;4.13;;;;;;;;;;5055028;28;20037;-75